createdAt,value
2023-01-23T01:47:32.664Z,24.30
2023-01-23T01:50:03.893Z,24.00
2023-01-23T01:52:33.567Z,23.80
2023-01-23T01:55:11.268Z,23.80
2023-01-23T01:57:43.169Z,24.00
2023-01-23T02:00:19.512Z,24.00
2023-01-23T02:02:54.404Z,23.80
2023-01-23T02:05:26.482Z,23.60
2023-01-23T02:08:00.858Z,23.40
2023-01-23T02:10:30.312Z,23.30
2023-01-23T02:13:19.581Z,23.30
2023-01-23T02:15:49.201Z,23.30
2023-01-23T02:18:18.776Z,23.30
2023-01-23T02:20:49.660Z,23.60
2023-01-23T02:23:19.084Z,23.70
2023-01-23T02:25:49.356Z,24.00
2023-01-23T02:28:19.635Z,24.20
2023-01-23T02:30:49.189Z,24.20
2023-01-23T02:33:21.696Z,24.50
2023-01-23T02:36:20.215Z,24.80
2023-01-23T02:38:56.337Z,25.00
2023-01-23T02:41:34.146Z,25.20
2023-01-23T02:44:06.047Z,25.30
2023-01-23T02:49:04.666Z,25.40
2023-01-23T02:51:34.641Z,25.50
2023-01-23T02:54:10.344Z,25.80
2023-01-23T02:56:40.583Z,25.90
2023-01-23T02:59:42.740Z,26.00
2023-01-23T03:02:12.644Z,25.80
2023-01-23T03:04:42.678Z,25.60
2023-01-23T03:07:12.667Z,25.50
2023-01-23T03:09:44.152Z,25.40
2023-01-23T03:12:13.630Z,25.40
2023-01-23T03:14:45.284Z,25.80
2023-01-23T03:17:17.839Z,26.00
2023-01-23T03:19:56.285Z,26.20
2023-01-23T03:22:31.622Z,26.50
2023-01-23T03:25:06.747Z,26.80
2023-01-23T03:27:38.308Z,26.60
2023-01-23T03:30:22.637Z,26.40
2023-01-23T03:32:52.241Z,26.30
2023-01-23T03:35:34.654Z,26.20
2023-01-23T03:38:06.679Z,26.10
2023-01-23T03:40:54.261Z,25.80
2023-01-23T03:43:26.749Z,25.60
2023-01-23T03:45:56.323Z,25.50
2023-01-23T07:06:59.054Z,23.70
2023-01-23T07:09:28.396Z,23.70
2023-01-23T07:11:57.857Z,23.80
2023-01-23T07:14:28.900Z,23.70
2023-01-23T07:16:58.377Z,23.70
2023-01-23T07:19:28.418Z,23.60
2023-01-23T07:21:58.182Z,23.50
2023-01-23T07:24:30.076Z,23.40
2023-01-23T07:27:00.052Z,23.30
2023-01-23T07:29:29.992Z,23.20
2023-01-23T07:32:01.663Z,23.00
2023-01-23T07:34:31.065Z,23.00
2023-01-23T07:37:00.896Z,23.00
2023-01-23T07:39:30.480Z,22.90
2023-01-23T07:42:02.987Z,22.80
2023-01-23T07:44:32.432Z,22.70
2023-01-23T07:47:01.809Z,22.70
2023-01-23T07:49:31.183Z,22.60
2023-01-23T07:52:00.989Z,22.60
2023-01-23T07:54:31.101Z,22.50
2023-01-23T07:57:01.308Z,22.40
2023-01-23T08:02:28.185Z,22.20
2023-01-23T08:04:57.718Z,22.00
2023-01-23T08:07:27.368Z,21.90
2023-01-23T08:09:56.815Z,21.80
2023-01-23T08:12:26.629Z,21.80
2023-01-23T08:14:56.495Z,21.30
2023-01-23T08:17:25.892Z,20.70
2023-01-23T08:19:55.301Z,20.30
2023-01-23T08:22:24.692Z,19.90
2023-01-23T08:24:54.183Z,19.50
2023-01-23T08:27:23.726Z,19.40
2023-01-23T08:29:53.107Z,19.30
2023-01-23T08:32:22.669Z,19.30
2023-01-23T08:34:52.643Z,19.10
2023-01-23T08:37:21.999Z,18.90
2023-01-23T08:39:51.371Z,18.80
2023-01-23T08:42:21.341Z,18.70
2023-01-23T08:44:51.159Z,18.70
2023-01-23T08:47:20.582Z,18.70
2023-01-23T08:49:50.002Z,18.60
2023-01-23T08:52:19.412Z,18.50
2023-01-23T08:54:48.758Z,18.60
2023-01-23T08:57:18.589Z,18.50
2023-01-23T08:59:49.124Z,18.50
2023-01-23T09:11:17.649Z,18.40
2023-01-23T09:13:47.964Z,18.40
2023-01-23T09:16:17.893Z,18.40
2023-01-23T09:18:47.771Z,18.40
2023-01-23T09:21:19.525Z,18.30
2023-01-23T09:23:49.916Z,18.30
2023-01-23T09:26:20.987Z,18.30
2023-01-23T09:28:50.974Z,18.30
2023-01-23T09:31:20.486Z,18.20
2023-01-23T09:33:50.764Z,18.20
2023-01-23T09:36:33.712Z,18.20
2023-01-23T09:39:10.849Z,18.10
2023-01-23T09:41:40.852Z,18.10
2023-01-23T09:44:16.207Z,18.10
2023-01-23T09:46:55.542Z,18.10
2023-01-23T09:49:42.938Z,18.00
2023-01-23T09:52:18.511Z,18.00
2023-01-23T09:54:48.270Z,17.90
2023-01-23T09:57:22.746Z,17.80
2023-01-23T10:00:00.182Z,17.80
2023-01-23T10:02:31.094Z,17.80
2023-01-23T10:05:05.088Z,17.70
2023-01-23T10:07:46.826Z,17.70
2023-01-23T10:10:35.025Z,17.70
2023-01-23T10:13:10.892Z,17.80
2023-01-23T10:15:43.812Z,17.70
2023-01-23T10:18:19.052Z,17.70
2023-01-23T10:20:57.990Z,17.60
2023-01-23T10:23:27.522Z,17.60
2023-01-23T10:25:57.756Z,17.50
2023-01-23T10:28:27.115Z,17.50
2023-01-23T10:31:02.893Z,17.40
2023-01-23T10:33:54.854Z,17.40
2023-01-23T10:36:25.249Z,17.30
2023-01-23T10:39:02.496Z,17.40
2023-01-23T10:41:32.313Z,17.30
2023-01-23T10:44:02.451Z,17.30
2023-01-23T10:46:53.888Z,17.30
2023-01-23T10:49:32.130Z,17.20
2023-01-23T10:52:01.751Z,17.20
2023-01-23T10:54:32.845Z,17.20
2023-01-23T10:57:03.125Z,17.20
2023-01-23T10:59:35.370Z,17.20
2023-01-23T11:02:19.872Z,17.20
2023-01-23T11:04:51.851Z,17.10
2023-01-23T11:07:23.796Z,17.10
2023-01-23T11:09:58.175Z,17.10
2023-01-23T11:12:32.752Z,17.00
2023-01-23T11:15:20.739Z,17.00
2023-01-23T11:17:51.171Z,17.00
2023-01-23T11:20:31.973Z,17.00
2023-01-23T11:23:21.994Z,17.00
2023-01-23T11:25:53.910Z,16.90
2023-01-23T11:28:32.425Z,16.80
2023-01-23T11:31:15.682Z,16.80
2023-01-23T11:34:01.802Z,16.80
2023-01-23T11:36:40.449Z,16.80
2023-01-23T11:39:20.947Z,16.80
2023-01-23T11:41:50.694Z,16.70
2023-01-23T11:44:25.555Z,16.70
2023-01-23T11:47:12.535Z,16.70
2023-01-23T11:49:54.174Z,16.70
2023-01-23T11:52:39.819Z,16.70
2023-01-23T11:55:12.081Z,16.60
2023-01-23T11:57:50.711Z,16.60
2023-01-23T12:00:39.659Z,16.50
2023-01-23T12:03:21.724Z,16.50
2023-01-23T12:11:46.228Z,16.50
2023-01-23T12:14:29.139Z,16.40
2023-01-23T12:17:16.809Z,16.40
2023-01-23T12:20:02.328Z,16.40
2023-01-23T12:22:50.053Z,16.40
2023-01-23T12:25:21.530Z,16.40
2023-01-23T12:27:59.319Z,16.30
2023-01-23T12:30:31.783Z,16.30
2023-01-23T12:33:15.995Z,16.30
2023-01-23T12:35:52.899Z,16.20
2023-01-23T12:38:29.444Z,16.20
2023-01-23T12:41:05.073Z,16.20
2023-01-23T12:43:44.906Z,16.20
2023-01-23T12:46:20.658Z,16.20
2023-01-23T12:49:09.505Z,16.10
2023-01-23T12:51:40.981Z,16.10
2023-01-23T12:54:17.621Z,16.00
2023-01-23T12:59:29.071Z,16.00
2023-01-23T13:01:59.251Z,16.00
2023-01-23T13:04:44.312Z,16.00
2023-01-23T13:07:37.448Z,15.90
2023-01-23T13:10:24.963Z,15.90
2023-01-23T13:12:58.360Z,15.80
2023-01-23T13:15:41.150Z,15.80
2023-01-23T13:18:24.687Z,15.80
2023-01-23T13:21:15.029Z,15.80
2023-01-23T13:23:44.620Z,15.80
2023-01-23T13:26:24.557Z,15.80
2023-01-23T13:29:03.515Z,15.80
2023-01-23T13:31:48.064Z,15.70
2023-01-23T13:34:20.668Z,15.70
2023-01-23T13:36:51.205Z,15.70
2023-01-23T13:39:23.729Z,15.60
2023-01-23T13:42:12.476Z,15.60
2023-01-23T13:45:05.243Z,15.50
2023-01-23T14:24:58.668Z,15.30
2023-01-23T14:27:53.160Z,15.30
2023-01-23T14:30:32.440Z,15.30
2023-01-23T14:33:02.081Z,15.30
2023-01-23T14:35:35.451Z,15.20
2023-01-23T14:38:07.595Z,15.20
2023-01-23T14:40:49.282Z,15.10
2023-01-23T14:43:21.057Z,15.10
2023-01-23T14:45:51.995Z,15.10
2023-01-23T14:48:22.919Z,15.00
2023-01-23T14:50:52.379Z,15.10
2023-01-23T14:53:22.135Z,15.00
2023-01-23T14:55:53.487Z,15.00
2023-01-23T14:58:27.295Z,15.00
2023-01-23T15:00:57.341Z,14.90
2023-01-23T15:03:47.530Z,14.90
2023-01-23T15:06:18.348Z,14.90
2023-01-23T15:08:48.414Z,14.90
2023-01-23T15:11:18.803Z,14.80
2023-01-23T15:13:54.694Z,14.80
2023-01-23T15:16:26.293Z,14.80
2023-01-23T15:18:56.121Z,14.80
2023-01-23T15:21:31.708Z,14.80
2023-01-23T15:24:21.659Z,14.80
2023-01-23T15:27:02.633Z,14.80
2023-01-23T15:29:32.253Z,14.70
2023-01-23T15:32:02.528Z,14.70
2023-01-23T15:34:34.215Z,14.70
2023-01-23T15:37:03.907Z,14.60
2023-01-23T15:39:34.919Z,14.70
2023-01-23T15:42:07.901Z,14.70
2023-01-23T15:44:37.491Z,14.60
2023-01-23T15:47:08.097Z,14.60
2023-01-23T15:49:39.250Z,14.60
2023-01-23T15:52:17.864Z,14.60
2023-01-23T15:54:48.550Z,14.60
2023-01-23T15:57:19.176Z,14.60
2023-01-23T15:59:48.963Z,14.60
2023-01-23T16:02:31.158Z,14.60
2023-01-23T16:05:03.422Z,14.60
2023-01-23T16:07:35.874Z,14.60
2023-01-23T16:10:07.034Z,14.60
2023-01-23T16:12:40.607Z,14.60
2023-01-23T16:15:17.060Z,14.60
2023-01-23T16:17:47.451Z,14.50
2023-01-23T16:20:17.071Z,14.50
2023-01-23T16:49:51.896Z,14.40
2023-01-23T16:52:23.179Z,14.40
2023-01-23T16:54:54.687Z,14.50
2023-01-23T16:57:24.416Z,14.50
2023-01-23T16:59:54.343Z,14.50
2023-01-23T17:02:30.598Z,14.40
2023-01-23T17:05:00.025Z,14.50
2023-01-23T17:07:29.404Z,14.50
2023-01-23T17:09:59.020Z,14.50
2023-01-23T17:12:37.353Z,14.50
2023-01-23T17:15:06.892Z,14.50
2023-01-23T17:17:37.369Z,14.60
2023-01-23T17:20:07.415Z,14.50
2023-01-23T17:22:40.538Z,14.50
2023-01-23T17:25:17.561Z,14.60
2023-01-23T17:27:57.430Z,14.60
2023-01-23T17:30:36.802Z,14.60
2023-01-23T17:33:06.812Z,14.60
2023-01-23T17:35:39.941Z,14.60
2023-01-23T17:38:14.863Z,14.60
2023-01-23T17:40:44.505Z,14.60
2023-01-23T17:43:15.035Z,14.50
2023-01-23T17:45:46.948Z,14.40
2023-01-23T17:48:17.863Z,14.40
2023-01-23T17:50:48.754Z,14.30
2023-01-23T17:53:20.527Z,14.20
2023-01-23T17:55:54.773Z,14.20
2023-01-23T17:58:25.454Z,14.20
2023-01-23T18:00:55.944Z,14.10
2023-01-23T18:03:26.368Z,14.10
2023-01-23T18:05:55.872Z,14.10
2023-01-23T18:08:25.237Z,14.10
2023-01-23T18:10:58.103Z,14.00
2023-01-23T18:13:31.067Z,14.00
2023-01-23T18:16:15.924Z,14.10
2023-01-23T18:18:45.501Z,14.00
2023-01-23T18:21:17.041Z,14.00
2023-01-23T18:23:47.048Z,14.00
2023-01-23T18:26:20.095Z,14.00
2023-01-23T18:29:09.847Z,14.00
2023-01-23T18:31:45.789Z,14.10
2023-01-23T18:34:15.572Z,14.10
2023-01-23T18:36:51.461Z,14.10
2023-01-23T18:39:25.097Z,14.10
2023-01-23T18:42:12.569Z,14.10
2023-01-23T18:45:01.869Z,14.10
2023-01-23T18:47:31.839Z,14.10
2023-01-23T18:50:01.774Z,14.20
2023-01-23T18:52:31.160Z,14.20
2023-01-23T18:55:06.195Z,14.20
2023-01-23T18:57:36.772Z,14.20
2023-01-23T19:00:33.397Z,14.10
2023-01-23T19:03:12.496Z,14.10
2023-01-23T19:05:43.331Z,14.20
2023-01-23T19:08:35.470Z,14.10
2023-01-23T19:11:08.400Z,14.20
2023-01-23T19:13:46.410Z,14.20
2023-01-23T19:16:27.997Z,14.20
2023-01-23T19:19:15.811Z,14.20
2023-01-23T19:21:49.051Z,14.20
2023-01-23T19:24:22.140Z,14.20
2023-01-23T19:26:51.852Z,14.20
2023-01-23T19:29:23.110Z,14.20
2023-01-23T19:32:04.780Z,14.20
2023-01-23T19:34:36.719Z,14.20
2023-01-23T19:37:06.302Z,14.20
2023-01-23T19:39:35.814Z,14.20
2023-01-23T19:42:05.684Z,14.20
2023-01-23T19:44:35.653Z,14.20
2023-01-23T19:47:07.047Z,14.20
2023-01-23T19:49:36.461Z,14.30
2023-01-23T19:52:06.390Z,14.30
2023-01-23T19:54:36.447Z,14.30
2023-01-23T19:57:06.240Z,14.30
2023-01-23T19:59:36.416Z,14.30
2023-01-23T20:02:05.773Z,14.40
2023-01-23T20:04:36.220Z,14.30
2023-01-23T20:07:05.644Z,14.30
2023-01-23T20:09:35.416Z,14.40
2023-01-23T20:12:05.463Z,14.40
2023-01-23T20:14:35.252Z,14.40
2023-01-23T20:17:04.728Z,14.40
2023-01-23T20:19:35.664Z,14.40
2023-01-23T20:22:05.061Z,14.40
2023-01-23T20:24:34.420Z,14.50
2023-01-23T20:27:04.170Z,14.50
2023-01-23T20:29:34.236Z,14.50
2023-01-23T20:32:03.737Z,14.50
2023-01-23T20:34:34.169Z,14.50
2023-01-23T20:37:03.626Z,14.50
2023-01-23T20:39:33.591Z,14.50
2023-01-23T20:42:03.474Z,14.50
2023-01-23T20:44:33.377Z,14.60
2023-01-23T20:47:02.757Z,14.60
2023-01-23T20:49:32.120Z,14.60
2023-01-23T20:52:21.616Z,14.70
2023-01-23T20:54:50.980Z,14.70
2023-01-23T20:57:20.764Z,14.70
2023-01-23T20:59:50.582Z,14.70
2023-01-23T21:02:27.062Z,14.80
2023-01-23T21:04:56.703Z,14.80
2023-01-23T21:07:27.768Z,14.80
2023-01-23T21:09:57.501Z,14.90
2023-01-23T21:12:26.876Z,15.00
2023-01-23T21:14:56.276Z,15.00
2023-01-23T21:17:26.077Z,15.00
2023-01-23T21:19:55.461Z,15.10
2023-01-23T21:22:24.849Z,15.10
2023-01-23T21:24:54.667Z,15.20
2023-01-23T21:27:25.264Z,15.30
2023-01-23T21:29:56.031Z,15.40
2023-01-23T21:32:25.814Z,15.50
2023-01-23T21:34:57.120Z,15.60
2023-01-23T21:37:26.656Z,15.80
2023-01-23T21:39:56.057Z,15.90
2023-01-23T21:42:30.981Z,16.00
2023-01-23T21:45:00.396Z,16.10
2023-01-23T21:47:29.793Z,16.20
